createdAt,value
2018-09-13T00:00:43.207Z,2.07
2018-09-13T00:03:12.579Z,1.97
2018-09-13T00:05:41.958Z,2.10
2018-09-13T00:08:11.348Z,2.47
2018-09-13T00:10:40.687Z,2.50
2018-09-13T00:13:10.028Z,2.20
2018-09-13T00:15:39.426Z,2.30
2018-09-13T00:18:08.758Z,2.03
2018-09-13T00:20:38.090Z,2.00
2018-09-13T00:23:08.382Z,2.33
2018-09-13T00:25:37.728Z,2.17
2018-09-13T00:28:07.173Z,2.03
2018-09-13T00:30:36.517Z,2.00
2018-09-13T00:33:05.857Z,2.37
2018-09-13T00:35:35.118Z,2.10
2018-09-13T00:38:04.416Z,1.90
2018-09-13T00:40:33.681Z,2.60
2018-09-13T00:43:02.971Z,2.40
2018-09-13T00:45:32.308Z,2.03
2018-09-13T00:48:02.013Z,1.90
2018-09-13T00:50:31.510Z,2.03
2018-09-13T00:53:00.819Z,2.00
2018-09-13T00:55:30.153Z,2.30
2018-09-13T00:57:59.466Z,2.30
2018-09-13T01:00:28.759Z,2.10
2018-09-13T01:02:58.049Z,2.00
2018-09-13T01:05:27.354Z,2.57
2018-09-13T01:07:57.242Z,2.30
2018-09-13T01:10:26.634Z,2.57
2018-09-13T01:12:55.990Z,2.10
2018-09-13T01:15:25.387Z,2.03
2018-09-13T01:17:54.773Z,2.53
2018-09-13T01:20:24.224Z,2.40
2018-09-13T01:22:53.586Z,2.10
2018-09-13T01:25:22.995Z,2.37
2018-09-13T01:27:52.401Z,2.50
2018-09-13T01:30:22.625Z,2.43
2018-09-13T01:32:52.102Z,2.10
2018-09-13T01:35:21.483Z,2.50
2018-09-13T01:37:50.988Z,2.57
2018-09-13T01:40:20.427Z,2.70
2018-09-13T01:42:49.789Z,3.00
2018-09-13T01:45:19.293Z,2.13
2018-09-13T01:47:48.973Z,2.93
2018-09-13T01:50:18.554Z,3.20
2018-09-13T01:52:48.264Z,3.20
2018-09-13T01:55:17.779Z,4.83
2018-09-13T01:57:47.280Z,2.80
2018-09-13T02:00:16.706Z,3.70
2018-09-13T02:02:46.194Z,3.30
2018-09-13T02:05:15.573Z,3.03
2018-09-13T02:07:45.213Z,2.80
2018-09-13T02:10:14.679Z,3.13
2018-09-13T02:12:44.149Z,2.90
2018-09-13T02:15:14.066Z,2.60
2018-09-13T02:17:43.624Z,2.90
2018-09-13T02:20:13.011Z,3.30
2018-09-13T02:22:42.837Z,3.10
2018-09-13T02:25:12.360Z,3.10
2018-09-13T02:27:41.802Z,4.40
2018-09-13T02:30:11.239Z,3.67
2018-09-13T02:32:40.804Z,4.00
2018-09-13T02:35:10.595Z,3.30
2018-09-13T02:37:40.478Z,3.77
2018-09-13T02:40:10.015Z,4.10
2018-09-13T02:42:39.335Z,3.37
2018-09-13T02:45:08.818Z,2.87
2018-09-13T02:47:38.271Z,2.97
2018-09-13T02:50:07.730Z,3.30
2018-09-13T02:52:37.251Z,3.30
2018-09-13T02:55:06.810Z,3.27
2018-09-13T02:57:36.116Z,4.07
2018-09-13T03:00:06.767Z,3.83
2018-09-13T03:02:36.065Z,3.37
2018-09-13T03:05:05.377Z,3.57
2018-09-13T03:07:34.736Z,3.37
2018-09-13T03:10:04.068Z,3.70
2018-09-13T03:12:33.367Z,3.80
2018-09-13T03:15:02.730Z,3.90
2018-09-13T03:17:32.044Z,3.83
2018-09-13T03:20:01.411Z,3.70
2018-09-13T03:22:31.125Z,3.00
2018-09-13T03:25:00.420Z,3.70
2018-09-13T03:27:29.748Z,3.60
2018-09-13T03:29:59.140Z,3.20
2018-09-13T03:32:28.486Z,3.63
2018-09-13T03:34:57.905Z,4.43
2018-09-13T03:37:27.249Z,3.60
2018-09-13T03:39:56.648Z,3.33
2018-09-13T03:42:25.948Z,4.23
2018-09-13T03:44:56.375Z,3.57
2018-09-13T03:47:25.675Z,3.67
2018-09-13T03:49:55.033Z,3.13
2018-09-13T03:52:24.494Z,3.90
2018-09-13T03:54:53.923Z,3.07
2018-09-13T03:57:23.217Z,4.20
2018-09-13T03:59:52.556Z,3.40
2018-09-13T04:02:21.853Z,4.43
2018-09-13T04:04:51.207Z,4.20
2018-09-13T04:07:20.809Z,4.57
2018-09-13T04:09:50.104Z,4.00
2018-09-13T04:12:19.504Z,4.20
2018-09-13T04:14:48.863Z,5.13
2018-09-13T04:17:18.266Z,3.70
2018-09-13T04:19:48.016Z,4.30
2018-09-13T04:22:18.154Z,4.20
2018-09-13T04:24:47.508Z,4.13
2018-09-13T04:27:16.878Z,4.03
2018-09-13T04:29:46.686Z,4.57
2018-09-13T04:32:16.021Z,3.63
2018-09-13T04:34:45.808Z,3.70
2018-09-13T04:37:15.165Z,4.90
2018-09-13T04:39:44.566Z,3.80
2018-09-13T04:42:13.963Z,3.87
2018-09-13T04:44:43.280Z,4.40
2018-09-13T04:47:12.630Z,4.40
2018-09-13T04:49:41.899Z,4.07
2018-09-13T04:52:11.352Z,4.57
2018-09-13T04:54:40.682Z,5.20
2018-09-13T04:57:10.170Z,5.07
2018-09-13T04:59:39.490Z,5.00
2018-09-13T05:02:08.848Z,3.90
2018-09-13T05:04:38.144Z,3.80
2018-09-13T05:07:07.616Z,4.50
2018-09-13T05:09:37.029Z,4.60
2018-09-13T05:12:06.366Z,4.40
2018-09-13T05:14:36.471Z,4.33
2018-09-13T05:17:05.803Z,4.03
2018-09-13T05:19:35.104Z,4.13
2018-09-13T05:22:04.521Z,4.23
2018-09-13T05:24:33.888Z,4.27
2018-09-13T05:27:03.258Z,4.37
2018-09-13T05:29:32.696Z,4.03
2018-09-13T05:32:02.094Z,4.83
2018-09-13T05:34:31.461Z,6.93
2018-09-13T05:37:01.361Z,5.17
2018-09-13T05:39:30.804Z,5.00
2018-09-13T05:42:00.168Z,5.87
2018-09-13T05:44:29.770Z,5.47
2018-09-13T05:46:59.121Z,4.90
2018-09-13T05:49:28.504Z,4.97
2018-09-13T05:51:58.135Z,5.33
2018-09-13T05:54:27.938Z,5.73
2018-09-13T05:56:57.342Z,6.60
2018-09-13T05:59:26.890Z,7.73
2018-09-13T06:01:56.237Z,6.90
2018-09-13T06:04:25.736Z,7.17
2018-09-13T06:06:55.095Z,6.63
2018-09-13T06:09:24.408Z,6.50
2018-09-13T06:11:53.714Z,7.70
2018-09-13T06:14:23.078Z,8.37
2018-09-13T06:16:52.347Z,7.60
2018-09-13T06:19:21.637Z,6.67
2018-09-13T06:21:51.281Z,6.03
2018-09-13T06:24:20.587Z,6.73
2018-09-13T06:26:49.996Z,7.40
2018-09-13T06:29:19.348Z,7.13
2018-09-13T06:31:48.702Z,8.33
2018-09-13T06:34:18.006Z,8.20
2018-09-13T06:36:47.424Z,6.97
2018-09-13T06:39:16.816Z,7.83
2018-09-13T06:41:46.175Z,7.83
2018-09-13T06:44:15.616Z,8.60
2018-09-13T06:46:45.011Z,7.30
2018-09-13T06:49:14.309Z,9.53
2018-09-13T06:51:43.781Z,11.87
2018-09-13T06:54:13.132Z,8.70
2018-09-13T06:56:42.496Z,8.80
2018-09-13T06:59:12.025Z,8.97
2018-09-13T07:01:41.353Z,8.83
2018-09-13T07:04:10.650Z,8.77
2018-09-13T07:06:40.495Z,8.67
2018-09-13T07:09:13.034Z,9.37
2018-09-13T07:11:42.955Z,10.10
2018-09-13T07:14:12.353Z,10.37
2018-09-13T07:16:41.657Z,10.70
2018-09-13T07:19:11.135Z,8.97
2018-09-13T07:21:40.465Z,8.03
2018-09-13T07:24:09.871Z,8.30
2018-09-13T07:26:39.615Z,8.07
2018-09-13T07:29:09.024Z,8.20
2018-09-13T07:31:38.488Z,8.93
2018-09-13T07:34:08.227Z,9.40
2018-09-13T07:36:37.617Z,7.87
2018-09-13T07:39:11.742Z,8.47
2018-09-13T07:41:41.148Z,7.40
2018-09-13T07:44:10.476Z,8.60
2018-09-13T07:46:40.155Z,8.37
2018-09-13T07:49:09.714Z,8.10
2018-09-13T07:51:39.072Z,9.10
2018-09-13T07:54:08.457Z,7.70
2018-09-13T07:56:37.836Z,8.20
2018-09-13T07:59:07.378Z,7.87
2018-09-13T08:01:36.785Z,7.47
2018-09-13T08:04:06.210Z,8.60
2018-09-13T08:06:35.542Z,9.00
2018-09-13T08:09:08.977Z,8.00
2018-09-13T08:11:38.339Z,8.23
2018-09-13T08:14:07.768Z,7.97
2018-09-13T08:16:37.141Z,7.63
2018-09-13T08:19:06.441Z,8.67
2018-09-13T08:21:35.842Z,8.00
2018-09-13T08:24:05.219Z,8.53
2018-09-13T08:26:34.526Z,7.90
2018-09-13T08:29:03.847Z,7.40
2018-09-13T08:31:33.734Z,8.20
2018-09-13T08:34:03.079Z,7.27
2018-09-13T08:36:32.407Z,7.10
2018-09-13T08:39:01.941Z,8.43
2018-09-13T08:41:31.279Z,8.23
2018-09-13T08:44:00.614Z,7.20
2018-09-13T08:46:30.154Z,6.53
2018-09-13T08:48:59.623Z,6.13
2018-09-13T08:51:29.022Z,6.97
2018-09-13T08:53:58.878Z,6.97
2018-09-13T08:56:28.274Z,6.77
2018-09-13T08:58:57.613Z,7.07
2018-09-13T09:01:27.001Z,6.00
2018-09-13T09:03:56.337Z,6.00
2018-09-13T09:06:25.724Z,6.33
2018-09-13T09:08:55.096Z,5.20
2018-09-13T09:11:24.402Z,5.63
2018-09-13T09:13:53.734Z,4.23
2018-09-13T09:16:23.333Z,3.90
2018-09-13T09:18:52.697Z,3.60
2018-09-13T09:21:22.252Z,4.17
2018-09-13T09:23:51.691Z,2.97
2018-09-13T09:26:21.073Z,3.57
2018-09-13T09:28:50.540Z,3.53
2018-09-13T09:31:19.935Z,3.13
2018-09-13T09:33:49.445Z,3.33
2018-09-13T09:36:18.885Z,2.40
2018-09-13T09:38:48.954Z,2.53
2018-09-13T09:41:18.259Z,2.57
2018-09-13T09:43:47.594Z,3.03
2018-09-13T09:46:16.904Z,3.10
2018-09-13T09:48:46.258Z,2.90
2018-09-13T09:51:15.615Z,3.00
2018-09-13T09:53:45.071Z,3.27
2018-09-13T09:56:14.462Z,3.77
2018-09-13T09:58:43.710Z,2.70
2018-09-13T10:01:18.493Z,2.87
2018-09-13T10:03:47.901Z,2.70
2018-09-13T10:06:17.235Z,2.77
2018-09-13T10:08:46.542Z,2.60
2018-09-13T10:11:15.898Z,2.70
2018-09-13T10:13:45.351Z,3.10
2018-09-13T10:16:20.518Z,2.50
2018-09-13T10:18:53.938Z,2.90
2018-09-13T10:21:28.562Z,2.57
2018-09-13T10:24:02.983Z,3.20
2018-09-13T10:26:37.510Z,2.67
2018-09-13T10:29:12.112Z,3.13
2018-09-13T10:31:47.188Z,2.77
2018-09-13T10:34:21.757Z,3.10
2018-09-13T10:36:56.232Z,2.50
2018-09-13T10:39:30.740Z,2.57
2018-09-13T10:42:05.460Z,2.27
2018-09-13T10:44:39.947Z,3.10
2018-09-13T10:47:15.130Z,2.70
2018-09-13T10:49:50.434Z,3.00
2018-09-13T18:39:53.385Z,5.53
2018-09-13T18:42:24.865Z,5.00
2018-09-13T18:44:54.372Z,4.13
2018-09-13T18:47:23.735Z,4.87
2018-09-13T18:49:53.083Z,5.57
2018-09-13T18:52:23.099Z,5.00
2018-09-13T18:54:52.423Z,4.80
2018-09-13T18:57:21.753Z,4.00
2018-09-13T18:59:52.134Z,5.30
2018-09-13T19:02:21.550Z,5.00
2018-09-13T19:04:50.818Z,5.70
2018-09-13T19:07:20.150Z,4.47
2018-09-13T19:09:49.954Z,5.10
2018-09-13T19:12:20.836Z,4.87
2018-09-13T19:14:50.242Z,5.13
2018-09-13T19:17:21.160Z,4.57
2018-09-13T19:19:50.961Z,5.00
2018-09-13T19:22:20.443Z,4.50
2018-09-13T19:24:50.165Z,5.10
2018-09-13T19:27:20.069Z,5.50
2018-09-13T19:29:49.448Z,4.70
2018-09-13T19:32:19.730Z,5.67
2018-09-13T19:34:49.281Z,5.23
2018-09-13T19:37:19.306Z,3.80
2018-09-13T19:39:49.138Z,4.17
2018-09-13T19:42:20.087Z,5.57
2018-09-13T19:44:50.795Z,4.33
2018-09-13T19:47:20.982Z,5.13
2018-09-13T19:49:51.168Z,4.20
2018-09-13T19:52:21.399Z,4.50
2018-09-13T19:54:51.275Z,4.60
2018-09-13T19:57:21.786Z,4.27
2018-09-13T19:59:51.119Z,5.10
2018-09-13T20:02:21.202Z,4.27
2018-09-13T20:04:50.559Z,4.23
2018-09-13T20:07:20.893Z,3.97
2018-09-13T20:09:50.235Z,4.63
2018-09-13T20:12:19.723Z,4.70
2018-09-13T20:14:48.986Z,4.30
2018-09-13T20:17:18.384Z,4.90
2018-09-13T20:19:47.890Z,4.30
2018-09-13T20:22:17.408Z,4.83
2018-09-13T20:24:47.029Z,4.80
2018-09-13T20:27:16.288Z,4.30
2018-09-13T20:29:45.578Z,4.53
2018-09-13T20:32:14.935Z,3.90
2018-09-13T20:34:44.253Z,4.17
2018-09-13T20:37:13.641Z,4.30
2018-09-13T20:39:43.553Z,3.83
2018-09-13T20:42:12.980Z,4.33
2018-09-13T20:44:43.121Z,3.90
2018-09-13T20:47:12.657Z,3.93
2018-09-13T20:49:42.084Z,4.33
2018-09-13T20:52:11.438Z,3.57
2018-09-13T20:54:40.880Z,3.70
2018-09-13T20:57:10.275Z,4.40
2018-09-13T20:59:39.840Z,4.33
2018-09-13T21:02:09.752Z,4.50
2018-09-13T21:04:39.118Z,4.17
2018-09-13T21:07:08.617Z,4.97
2018-09-13T21:09:38.456Z,3.97
2018-09-13T21:12:07.941Z,4.37
2018-09-13T21:14:37.750Z,4.10
2018-09-13T21:17:07.226Z,4.53
2018-09-13T21:19:36.539Z,3.83
2018-09-13T21:22:05.901Z,4.63
2018-09-13T21:24:35.254Z,3.53
2018-09-13T21:27:04.819Z,4.77
2018-09-13T21:29:34.211Z,3.87
2018-09-13T21:32:03.894Z,4.37
2018-09-13T21:34:33.187Z,4.40
2018-09-13T21:37:02.521Z,4.43
2018-09-13T21:39:32.046Z,4.30
2018-09-13T21:42:01.386Z,4.30
2018-09-13T21:44:30.801Z,4.17
2018-09-13T21:47:00.215Z,4.40
2018-09-13T21:49:29.583Z,4.93
2018-09-13T21:51:58.882Z,3.60
2018-09-13T21:54:28.231Z,4.07
2018-09-13T21:56:57.512Z,3.90
2018-09-13T21:59:26.791Z,4.50
2018-09-13T22:01:56.114Z,3.90
2018-09-13T22:04:25.429Z,4.00
2018-09-13T22:06:54.717Z,4.80
2018-09-13T22:09:24.015Z,3.60
2018-09-13T22:11:53.368Z,4.03
2018-09-13T22:14:22.859Z,4.23
2018-09-13T22:16:52.675Z,3.63
2018-09-13T22:19:22.104Z,4.73
2018-09-13T22:21:51.471Z,4.13
2018-09-13T22:24:20.950Z,4.27
2018-09-13T22:26:50.259Z,4.20
2018-09-13T22:29:19.617Z,5.20
2018-09-13T22:31:49.032Z,4.87
2018-09-13T22:34:18.523Z,4.10
2018-09-13T22:36:47.835Z,4.47
2018-09-13T22:39:17.227Z,4.90
2018-09-13T22:41:46.524Z,4.47
2018-09-13T22:44:16.196Z,3.90
2018-09-13T22:46:45.542Z,4.40
2018-09-13T22:49:14.809Z,4.60
2018-09-13T22:51:44.080Z,4.30
2018-09-13T22:54:20.574Z,4.37
2018-09-13T22:56:49.974Z,4.67
2018-09-13T22:59:19.370Z,4.30
2018-09-13T23:01:49.886Z,4.93
2018-09-13T23:04:19.318Z,3.97
2018-09-13T23:06:48.736Z,4.53
2018-09-13T23:09:18.104Z,5.10
2018-09-13T23:11:47.447Z,5.03
2018-09-13T23:14:16.775Z,4.80
2018-09-13T23:16:49.579Z,4.30
2018-09-13T23:19:15.794Z,4.43
2018-09-13T23:21:45.154Z,4.00
2018-09-13T23:24:14.487Z,3.77
2018-09-13T23:26:43.758Z,3.63
2018-09-13T23:29:13.056Z,5.17
2018-09-13T23:31:42.397Z,4.40
2018-09-13T23:34:11.636Z,4.33
2018-09-13T23:36:40.986Z,5.03
2018-09-13T23:39:11.420Z,4.13
2018-09-13T23:41:41.576Z,4.30
2018-09-13T23:44:10.851Z,3.80
2018-09-13T23:46:40.758Z,4.23
2018-09-13T23:49:10.044Z,4.70
2018-09-13T23:51:39.382Z,4.40
2018-09-13T23:54:08.795Z,4.17
2018-09-13T23:56:38.085Z,4.20
2018-09-13T23:59:07.396Z,3.83
